sensor_id;sensor_type;location;lat;lon;timestamp;temperature;humidity
45643;DHT22;31358;46.008;11.144;2023-02-12T00:02:15;4.40;77.60
45643;DHT22;31358;46.008;11.144;2023-02-12T00:04:41;4.30;78.50
45643;DHT22;31358;46.008;11.144;2023-02-12T00:07:06;4.20;78.70
45643;DHT22;31358;46.008;11.144;2023-02-12T00:09:32;4.20;78.00
45643;DHT22;31358;46.008;11.144;2023-02-12T00:11:58;4.50;77.00
45643;DHT22;31358;46.008;11.144;2023-02-12T00:14:24;4.70;76.70
45643;DHT22;31358;46.008;11.144;2023-02-12T00:16:49;4.70;76.60
45643;DHT22;31358;46.008;11.144;2023-02-12T00:19:15;5.00;75.50
45643;DHT22;31358;46.008;11.144;2023-02-12T00:21:41;4.90;76.40
45643;DHT22;31358;46.008;11.144;2023-02-12T00:24:06;4.90;76.40
45643;DHT22;31358;46.008;11.144;2023-02-12T00:26:32;5.00;75.60
45643;DHT22;31358;46.008;11.144;2023-02-12T00:28:58;5.40;74.70
45643;DHT22;31358;46.008;11.144;2023-02-12T00:31:26;5.40;74.60
45643;DHT22;31358;46.008;11.144;2023-02-12T00:33:52;5.50;74.60
45643;DHT22;31358;46.008;11.144;2023-02-12T00:36:20;5.40;75.20
45643;DHT22;31358;46.008;11.144;2023-02-12T00:38:46;5.00;76.10
45643;DHT22;31358;46.008;11.144;2023-02-12T00:41:14;5.30;75.70
45643;DHT22;31358;46.008;11.144;2023-02-12T00:43:40;4.90;76.30
45643;DHT22;31358;46.008;11.144;2023-02-12T00:46:06;4.80;76.90
45643;DHT22;31358;46.008;11.144;2023-02-12T00:48:33;4.90;76.60
45643;DHT22;31358;46.008;11.144;2023-02-12T00:50:58;5.00;76.60
45643;DHT22;31358;46.008;11.144;2023-02-12T00:53:24;4.80;77.90
45643;DHT22;31358;46.008;11.144;2023-02-12T00:55:50;4.70;77.00
45643;DHT22;31358;46.008;11.144;2023-02-12T00:58:15;5.20;76.10
45643;DHT22;31358;46.008;11.144;2023-02-12T01:00:42;5.00;76.90
45643;DHT22;31358;46.008;11.144;2023-02-12T01:03:08;4.60;77.90
45643;DHT22;31358;46.008;11.144;2023-02-12T01:05:34;4.70;77.30
45643;DHT22;31358;46.008;11.144;2023-02-12T01:08:00;4.60;78.10
45643;DHT22;31358;46.008;11.144;2023-02-12T01:10:26;4.60;77.70
45643;DHT22;31358;46.008;11.144;2023-02-12T01:12:52;4.50;77.70
45643;DHT22;31358;46.008;11.144;2023-02-12T01:15:18;4.30;79.00
45643;DHT22;31358;46.008;11.144;2023-02-12T01:17:44;4.10;78.70
45643;DHT22;31358;46.008;11.144;2023-02-12T01:20:14;4.00;79.60
45643;DHT22;31358;46.008;11.144;2023-02-12T01:22:42;3.90;80.00
45643;DHT22;31358;46.008;11.144;2023-02-12T01:25:08;4.10;79.10
45643;DHT22;31358;46.008;11.144;2023-02-12T01:27:34;4.20;79.40
45643;DHT22;31358;46.008;11.144;2023-02-12T01:30:00;4.30;79.00
45643;DHT22;31358;46.008;11.144;2023-02-12T01:32:26;4.50;78.90
45643;DHT22;31358;46.008;11.144;2023-02-12T01:34:51;4.80;78.30
45643;DHT22;31358;46.008;11.144;2023-02-12T01:37:17;5.10;77.70
45643;DHT22;31358;46.008;11.144;2023-02-12T01:39:43;5.20;77.80
45643;DHT22;31358;46.008;11.144;2023-02-12T01:42:13;5.20;77.70
45643;DHT22;31358;46.008;11.144;2023-02-12T01:47:38;5.20;78.00
45643;DHT22;31358;46.008;11.144;2023-02-12T01:50:07;5.30;78.10
45643;DHT22;31358;46.008;11.144;2023-02-12T01:52:35;5.30;78.20
45643;DHT22;31358;46.008;11.144;2023-02-12T01:55:05;5.30;78.20
45643;DHT22;31358;46.008;11.144;2023-02-12T01:57:34;5.30;78.20
45643;DHT22;31358;46.008;11.144;2023-02-12T02:00:05;5.30;78.40
45643;DHT22;31358;46.008;11.144;2023-02-12T02:02:31;5.30;78.40
45643;DHT22;31358;46.008;11.144;2023-02-12T02:04:59;5.30;78.50
45643;DHT22;31358;46.008;11.144;2023-02-12T02:07:26;4.70;80.80
45643;DHT22;31358;46.008;11.144;2023-02-12T02:09:52;4.70;80.70
45643;DHT22;31358;46.008;11.144;2023-02-12T02:12:17;4.90;80.10
45643;DHT22;31358;46.008;11.144;2023-02-12T02:15:02;4.60;80.50
45643;DHT22;31358;46.008;11.144;2023-02-12T02:23:24;4.80;80.80
45643;DHT22;31358;46.008;11.144;2023-02-12T02:32:00;5.90;78.70
45643;DHT22;31358;46.008;11.144;2023-02-12T02:34:37;4.90;79.80
45643;DHT22;31358;46.008;11.144;2023-02-12T02:40:06;5.50;79.80
45643;DHT22;31358;46.008;11.144;2023-02-12T02:42:35;5.70;79.60
45643;DHT22;31358;46.008;11.144;2023-02-12T02:45:15;5.70;79.50
45643;DHT22;31358;46.008;11.144;2023-02-12T02:47:57;5.40;80.00
45643;DHT22;31358;46.008;11.144;2023-02-12T02:50:25;5.20;80.40
45643;DHT22;31358;46.008;11.144;2023-02-12T02:53:02;5.10;80.80
45643;DHT22;31358;46.008;11.144;2023-02-12T02:55:36;4.80;80.90
45643;DHT22;31358;46.008;11.144;2023-02-12T02:58:12;4.30;81.50
45643;DHT22;31358;46.008;11.144;2023-02-12T03:03:28;5.10;81.60
45643;DHT22;31358;46.008;11.144;2023-02-12T03:06:05;5.50;80.60
45643;DHT22;31358;46.008;11.144;2023-02-12T03:08:43;5.30;80.80
45643;DHT22;31358;46.008;11.144;2023-02-12T03:11:26;5.60;80.50
45643;DHT22;31358;46.008;11.144;2023-02-12T03:14:21;5.50;81.00
45643;DHT22;31358;46.008;11.144;2023-02-12T03:19:24;5.40;81.20
45643;DHT22;31358;46.008;11.144;2023-02-12T03:21:54;4.80;81.00
45643;DHT22;31358;46.008;11.144;2023-02-12T03:26:57;4.40;82.70
45643;DHT22;31358;46.008;11.144;2023-02-12T03:29:23;4.80;82.70
45643;DHT22;31358;46.008;11.144;2023-02-12T03:32:09;4.30;82.50
45643;DHT22;31358;46.008;11.144;2023-02-12T03:35:20;4.80;82.40
45643;DHT22;31358;46.008;11.144;2023-02-12T03:37:55;5.30;81.40
45643;DHT22;31358;46.008;11.144;2023-02-12T03:40:30;5.30;80.50
45643;DHT22;31358;46.008;11.144;2023-02-12T03:43:15;4.70;81.90
45643;DHT22;31358;46.008;11.144;2023-02-12T03:48:29;4.40;83.80
45643;DHT22;31358;46.008;11.144;2023-02-12T03:51:04;3.80;85.60
45643;DHT22;31358;46.008;11.144;2023-02-12T03:53:36;3.60;86.20
45643;DHT22;31358;46.008;11.144;2023-02-12T03:56:06;3.60;86.50
45643;DHT22;31358;46.008;11.144;2023-02-12T03:58:35;3.80;85.80
45643;DHT22;31358;46.008;11.144;2023-02-12T04:01:02;4.50;84.40
45643;DHT22;31358;46.008;11.144;2023-02-12T04:03:29;4.30;83.70
45643;DHT22;31358;46.008;11.144;2023-02-12T04:05:55;3.90;84.10
45643;DHT22;31358;46.008;11.144;2023-02-12T04:08:21;4.40;84.10
45643;DHT22;31358;46.008;11.144;2023-02-12T04:13:41;4.70;82.60
45643;DHT22;31358;46.008;11.144;2023-02-12T04:16:24;4.60;83.40
45643;DHT22;31358;46.008;11.144;2023-02-12T04:18:53;4.60;83.70
45643;DHT22;31358;46.008;11.144;2023-02-12T04:30:16;3.90;85.90
45643;DHT22;31358;46.008;11.144;2023-02-12T04:32:47;3.70;85.50
45643;DHT22;31358;46.008;11.144;2023-02-12T04:37:53;3.50;86.60
45643;DHT22;31358;46.008;11.144;2023-02-12T04:40:20;3.10;89.10
45643;DHT22;31358;46.008;11.144;2023-02-12T04:42:49;3.10;88.90
45643;DHT22;31358;46.008;11.144;2023-02-12T04:45:20;3.10;88.70
45643;DHT22;31358;46.008;11.144;2023-02-12T04:47:46;3.40;89.10
45643;DHT22;31358;46.008;11.144;2023-02-12T04:50:12;3.30;88.00
45643;DHT22;31358;46.008;11.144;2023-02-12T04:52:38;3.30;87.30
45643;DHT22;31358;46.008;11.144;2023-02-12T04:55:04;3.20;89.10
45643;DHT22;31358;46.008;11.144;2023-02-12T04:57:29;3.40;87.70
45643;DHT22;31358;46.008;11.144;2023-02-12T04:59:55;3.40;88.00
45643;DHT22;31358;46.008;11.144;2023-02-12T05:02:21;3.50;87.70
45643;DHT22;31358;46.008;11.144;2023-02-12T05:04:48;4.30;87.60
45643;DHT22;31358;46.008;11.144;2023-02-12T05:07:14;4.50;86.80
45643;DHT22;31358;46.008;11.144;2023-02-12T05:09:39;3.80;86.80
45643;DHT22;31358;46.008;11.144;2023-02-12T05:12:05;3.70;87.10
45643;DHT22;31358;46.008;11.144;2023-02-12T05:14:31;3.40;87.30
45643;DHT22;31358;46.008;11.144;2023-02-12T05:16:56;3.40;87.20
45643;DHT22;31358;46.008;11.144;2023-02-12T05:19:22;3.40;87.60
45643;DHT22;31358;46.008;11.144;2023-02-12T05:21:51;3.30;88.60
45643;DHT22;31358;46.008;11.144;2023-02-12T05:24:17;3.30;89.00
45643;DHT22;31358;46.008;11.144;2023-02-12T05:26:42;3.10;90.00
45643;DHT22;31358;46.008;11.144;2023-02-12T05:29:08;3.60;89.60
45643;DHT22;31358;46.008;11.144;2023-02-12T05:31:34;3.80;89.00
45643;DHT22;31358;46.008;11.144;2023-02-12T05:33:59;4.30;88.00
45643;DHT22;31358;46.008;11.144;2023-02-12T05:36:25;4.50;87.20
45643;DHT22;31358;46.008;11.144;2023-02-12T05:38:57;4.50;87.20
45643;DHT22;31358;46.008;11.144;2023-02-12T05:41:24;4.60;86.80
45643;DHT22;31358;46.008;11.144;2023-02-12T05:43:51;5.20;86.30
45643;DHT22;31358;46.008;11.144;2023-02-12T05:46:18;4.80;87.00
45643;DHT22;31358;46.008;11.144;2023-02-12T05:48:44;4.50;87.90
45643;DHT22;31358;46.008;11.144;2023-02-12T05:51:12;4.70;87.50
45643;DHT22;31358;46.008;11.144;2023-02-12T05:53:39;5.20;86.60
45643;DHT22;31358;46.008;11.144;2023-02-12T05:56:46;5.40;86.20
45643;DHT22;31358;46.008;11.144;2023-02-12T05:59:18;5.70;85.40
45643;DHT22;31358;46.008;11.144;2023-02-12T06:01:45;5.50;85.70
45643;DHT22;31358;46.008;11.144;2023-02-12T06:04:23;5.50;85.90
45643;DHT22;31358;46.008;11.144;2023-02-12T06:06:51;5.70;85.20
45643;DHT22;31358;46.008;11.144;2023-02-12T06:09:16;5.70;85.60
45643;DHT22;31358;46.008;11.144;2023-02-12T06:11:42;5.60;85.90
45643;DHT22;31358;46.008;11.144;2023-02-12T06:14:12;5.80;85.60
45643;DHT22;31358;46.008;11.144;2023-02-12T06:16:37;5.70;85.60
45643;DHT22;31358;46.008;11.144;2023-02-12T06:19:04;5.60;85.80
45643;DHT22;31358;46.008;11.144;2023-02-12T06:21:31;5.50;86.30
45643;DHT22;31358;46.008;11.144;2023-02-12T06:23:57;5.20;86.90
45643;DHT22;31358;46.008;11.144;2023-02-12T06:26:23;5.30;86.90
45643;DHT22;31358;46.008;11.144;2023-02-12T06:28:49;5.20;87.30
45643;DHT22;31358;46.008;11.144;2023-02-12T06:33:46;5.20;87.40
45643;DHT22;31358;46.008;11.144;2023-02-12T06:36:12;5.30;87.60
45643;DHT22;31358;46.008;11.144;2023-02-12T06:38:38;5.20;87.80
45643;DHT22;31358;46.008;11.144;2023-02-12T06:41:04;5.40;87.20
45643;DHT22;31358;46.008;11.144;2023-02-12T06:43:30;4.70;87.40
45643;DHT22;31358;46.008;11.144;2023-02-12T06:45:59;4.30;88.20
45643;DHT22;31358;46.008;11.144;2023-02-12T06:48:25;3.80;89.00
45643;DHT22;31358;46.008;11.144;2023-02-12T06:50:51;3.80;89.50
45643;DHT22;31358;46.008;11.144;2023-02-12T06:53:16;3.70;89.70
45643;DHT22;31358;46.008;11.144;2023-02-12T06:55:42;3.70;90.10
45643;DHT22;31358;46.008;11.144;2023-02-12T06:58:07;3.60;90.20
45643;DHT22;31358;46.008;11.144;2023-02-12T07:00:33;3.50;90.40
45643;DHT22;31358;46.008;11.144;2023-02-12T07:02:59;3.40;90.30
45643;DHT22;31358;46.008;11.144;2023-02-12T07:05:25;3.40;90.50
45643;DHT22;31358;46.008;11.144;2023-02-12T07:07:51;3.60;90.40
45643;DHT22;31358;46.008;11.144;2023-02-12T07:10:18;3.90;90.60
45643;DHT22;31358;46.008;11.144;2023-02-12T07:12:44;4.60;90.10
45643;DHT22;31358;46.008;11.144;2023-02-12T07:15:10;4.60;89.70
45643;DHT22;31358;46.008;11.144;2023-02-12T07:17:35;4.70;89.70
45643;DHT22;31358;46.008;11.144;2023-02-12T07:20:02;4.70;90.10
45643;DHT22;31358;46.008;11.144;2023-02-12T07:22:27;4.50;90.00
45643;DHT22;31358;46.008;11.144;2023-02-12T07:24:53;4.30;89.40
45643;DHT22;31358;46.008;11.144;2023-02-12T07:27:19;4.30;90.40
45643;DHT22;31358;46.008;11.144;2023-02-12T07:29:44;4.50;90.50
45643;DHT22;31358;46.008;11.144;2023-02-12T07:32:10;4.70;90.20
45643;DHT22;31358;46.008;11.144;2023-02-12T07:34:36;4.90;90.00
45643;DHT22;31358;46.008;11.144;2023-02-12T07:37:01;5.40;88.70
45643;DHT22;31358;46.008;11.144;2023-02-12T07:39:27;5.30;88.60
45643;DHT22;31358;46.008;11.144;2023-02-12T07:41:54;4.80;89.40
45643;DHT22;31358;46.008;11.144;2023-02-12T07:44:20;5.10;90.10
45643;DHT22;31358;46.008;11.144;2023-02-12T07:46:47;5.10;89.80
45643;DHT22;31358;46.008;11.144;2023-02-12T07:49:15;5.30;89.30
45643;DHT22;31358;46.008;11.144;2023-02-12T07:51:41;5.50;88.70
45643;DHT22;31358;46.008;11.144;2023-02-12T07:54:08;5.60;88.40
45643;DHT22;31358;46.008;11.144;2023-02-12T07:56:35;5.30;88.80
45643;DHT22;31358;46.008;11.144;2023-02-12T07:59:11;5.40;88.70
45643;DHT22;31358;46.008;11.144;2023-02-12T08:01:40;4.80;89.60
45643;DHT22;31358;46.008;11.144;2023-02-12T08:04:08;4.90;90.00
45643;DHT22;31358;46.008;11.144;2023-02-12T08:06:38;4.60;90.30
45643;DHT22;31358;46.008;11.144;2023-02-12T08:09:06;4.80;90.10
45643;DHT22;31358;46.008;11.144;2023-02-12T08:11:32;5.30;90.70
45643;DHT22;31358;46.008;11.144;2023-02-12T08:13:59;5.40;89.30
45643;DHT22;31358;46.008;11.144;2023-02-12T08:16:26;5.10;90.30
45643;DHT22;31358;46.008;11.144;2023-02-12T08:18:53;5.10;89.90
45643;DHT22;31358;46.008;11.144;2023-02-12T08:21:21;4.80;90.00
45643;DHT22;31358;46.008;11.144;2023-02-12T08:23:47;4.60;90.20
45643;DHT22;31358;46.008;11.144;2023-02-12T08:26:19;4.50;90.70
45643;DHT22;31358;46.008;11.144;2023-02-12T08:28:52;4.60;90.80
45643;DHT22;31358;46.008;11.144;2023-02-12T08:31:24;5.10;90.00
45643;DHT22;31358;46.008;11.144;2023-02-12T08:33:51;6.00;88.30
45643;DHT22;31358;46.008;11.144;2023-02-12T08:36:20;5.90;87.80
45643;DHT22;31358;46.008;11.144;2023-02-12T08:38:47;6.00;88.00
45643;DHT22;31358;46.008;11.144;2023-02-12T08:41:16;6.30;87.40
45643;DHT22;31358;46.008;11.144;2023-02-12T08:43:42;6.60;86.70
45643;DHT22;31358;46.008;11.144;2023-02-12T08:46:14;6.50;86.70
45643;DHT22;31358;46.008;11.144;2023-02-12T08:48:41;6.60;86.60
45643;DHT22;31358;46.008;11.144;2023-02-12T08:51:12;6.80;86.00
45643;DHT22;31358;46.008;11.144;2023-02-12T08:53:40;6.70;86.50
45643;DHT22;31358;46.008;11.144;2023-02-12T08:56:07;5.80;88.10
45643;DHT22;31358;46.008;11.144;2023-02-12T08:58:34;5.70;88.70
45643;DHT22;31358;46.008;11.144;2023-02-12T09:01:00;5.60;88.90
45643;DHT22;31358;46.008;11.144;2023-02-12T09:03:26;5.50;89.30
45643;DHT22;31358;46.008;11.144;2023-02-12T09:05:52;5.20;89.60
45643;DHT22;31358;46.008;11.144;2023-02-12T09:08:18;5.20;89.80
45643;DHT22;31358;46.008;11.144;2023-02-12T09:10:44;5.40;90.00
45643;DHT22;31358;46.008;11.144;2023-02-12T09:13:11;5.30;90.10
45643;DHT22;31358;46.008;11.144;2023-02-12T09:15:38;5.90;88.60
45643;DHT22;31358;46.008;11.144;2023-02-12T09:18:04;6.10;89.10
45643;DHT22;31358;46.008;11.144;2023-02-12T09:20:30;6.40;88.10
45643;DHT22;31358;46.008;11.144;2023-02-12T09:22:57;6.70;88.60
45643;DHT22;31358;46.008;11.144;2023-02-12T09:25:23;6.90;86.90
45643;DHT22;31358;46.008;11.144;2023-02-12T09:27:49;6.80;87.30
45643;DHT22;31358;46.008;11.144;2023-02-12T09:30:14;6.70;88.90
45643;DHT22;31358;46.008;11.144;2023-02-12T09:32:40;6.50;88.80
45643;DHT22;31358;46.008;11.144;2023-02-12T09:35:06;6.40;89.20
45643;DHT22;31358;46.008;11.144;2023-02-12T09:37:31;6.40;89.70
45643;DHT22;31358;46.008;11.144;2023-02-12T09:39:57;6.50;90.00
45643;DHT22;31358;46.008;11.144;2023-02-12T09:42:29;6.80;89.00
45643;DHT22;31358;46.008;11.144;2023-02-12T09:45:06;6.80;89.50
45643;DHT22;31358;46.008;11.144;2023-02-12T09:48:04;6.60;89.60
45643;DHT22;31358;46.008;11.144;2023-02-12T09:50:53;6.60;89.50
45643;DHT22;31358;46.008;11.144;2023-02-12T09:53:23;6.70;89.70
45643;DHT22;31358;46.008;11.144;2023-02-12T09:55:49;6.70;90.00
45643;DHT22;31358;46.008;11.144;2023-02-12T09:58:37;6.70;90.10
45643;DHT22;31358;46.008;11.144;2023-02-12T10:01:16;6.60;89.70
45643;DHT22;31358;46.008;11.144;2023-02-12T10:03:44;6.80;89.80
45643;DHT22;31358;46.008;11.144;2023-02-12T10:11:53;6.90;89.00
45643;DHT22;31358;46.008;11.144;2023-02-12T10:25:53;7.60;89.10
45643;DHT22;31358;46.008;11.144;2023-02-12T10:30:55;7.60;88.30
45643;DHT22;31358;46.008;11.144;2023-02-12T10:38:59;7.90;88.30
45643;DHT22;31358;46.008;11.144;2023-02-12T10:41:27;8.10;88.30
45643;DHT22;31358;46.008;11.144;2023-02-12T10:43:54;8.20;87.70
45643;DHT22;31358;46.008;11.144;2023-02-12T10:46:20;8.40;87.20
45643;DHT22;31358;46.008;11.144;2023-02-12T10:48:50;8.70;86.30
45643;DHT22;31358;46.008;11.144;2023-02-12T10:51:32;8.80;87.00
45643;DHT22;31358;46.008;11.144;2023-02-12T10:54:39;8.90;86.00
45643;DHT22;31358;46.008;11.144;2023-02-12T10:57:26;9.00;86.60
45643;DHT22;31358;46.008;11.144;2023-02-12T10:59:55;9.00;85.50
45643;DHT22;31358;46.008;11.144;2023-02-12T11:02:31;9.10;85.30
45643;DHT22;31358;46.008;11.144;2023-02-12T11:04:59;9.30;85.20
45643;DHT22;31358;46.008;11.144;2023-02-12T11:07:26;9.30;84.80
45643;DHT22;31358;46.008;11.144;2023-02-12T11:09:54;9.40;85.40
45643;DHT22;31358;46.008;11.144;2023-02-12T11:12:35;9.40;84.90
45643;DHT22;31358;46.008;11.144;2023-02-12T11:15:22;9.40;85.00
45643;DHT22;31358;46.008;11.144;2023-02-12T11:17:59;9.70;83.80
45643;DHT22;31358;46.008;11.144;2023-02-12T11:20:39;10.00;83.30
45643;DHT22;31358;46.008;11.144;2023-02-12T11:31:28;10.20;83.70
45643;DHT22;31358;46.008;11.144;2023-02-12T11:36:29;10.60;81.70
45643;DHT22;31358;46.008;11.144;2023-02-12T11:38:56;10.40;81.70
45643;DHT22;31358;46.008;11.144;2023-02-12T11:41:39;10.60;82.90
45643;DHT22;31358;46.008;11.144;2023-02-12T11:44:27;10.90;82.30
45643;DHT22;31358;46.008;11.144;2023-02-12T11:47:06;10.90;81.20
45643;DHT22;31358;46.008;11.144;2023-02-12T11:49:37;10.90;81.60
45643;DHT22;31358;46.008;11.144;2023-02-12T11:52:04;11.00;81.40
45643;DHT22;31358;46.008;11.144;2023-02-12T11:54:41;11.10;80.90
45643;DHT22;31358;46.008;11.144;2023-02-12T11:57:48;11.10;81.30
45643;DHT22;31358;46.008;11.144;2023-02-12T12:00:36;11.40;81.40
45643;DHT22;31358;46.008;11.144;2023-02-12T12:03:22;11.60;80.70
45643;DHT22;31358;46.008;11.144;2023-02-12T12:06:10;11.60;82.50
45643;DHT22;31358;46.008;11.144;2023-02-12T12:08:47;11.90;80.10
45643;DHT22;31358;46.008;11.144;2023-02-12T12:11:18;11.90;80.30
45643;DHT22;31358;46.008;11.144;2023-02-12T12:14:02;12.10;80.40
45643;DHT22;31358;46.008;11.144;2023-02-12T12:16:59;12.30;79.90
45643;DHT22;31358;46.008;11.144;2023-02-12T12:25:17;12.00;78.50
45643;DHT22;31358;46.008;11.144;2023-02-12T12:28:05;12.00;79.00
45643;DHT22;31358;46.008;11.144;2023-02-12T12:30:52;12.20;78.90
45643;DHT22;31358;46.008;11.144;2023-02-12T12:34:23;12.40;79.40
45643;DHT22;31358;46.008;11.144;2023-02-12T12:58:53;12.90;78.40
45643;DHT22;31358;46.008;11.144;2023-02-12T13:12:45;13.20;78.00
45643;DHT22;31358;46.008;11.144;2023-02-12T13:15:20;13.60;78.50
45643;DHT22;31358;46.008;11.144;2023-02-12T13:17:50;13.70;78.20
45643;DHT22;31358;46.008;11.144;2023-02-12T13:23:14;13.40;77.50
45643;DHT22;31358;46.008;11.144;2023-02-12T13:28:35;13.40;78.10
45643;DHT22;31358;46.008;11.144;2023-02-12T13:31:08;13.60;77.30
45643;DHT22;31358;46.008;11.144;2023-02-12T13:36:14;13.70;76.70
45643;DHT22;31358;46.008;11.144;2023-02-12T13:41:20;13.90;77.40
45643;DHT22;31358;46.008;11.144;2023-02-12T13:44:16;14.00;76.50
45643;DHT22;31358;46.008;11.144;2023-02-12T13:46:55;14.00;76.80
45643;DHT22;31358;46.008;11.144;2023-02-12T13:52:02;14.00;76.50
45643;DHT22;31358;46.008;11.144;2023-02-12T13:54:43;14.00;76.70
45643;DHT22;31358;46.008;11.144;2023-02-12T13:57:14;14.00;75.70
45643;DHT22;31358;46.008;11.144;2023-02-12T13:59:45;13.90;76.50
45643;DHT22;31358;46.008;11.144;2023-02-12T14:05:22;14.10;77.30
45643;DHT22;31358;46.008;11.144;2023-02-12T14:07:54;14.20;76.80
45643;DHT22;31358;46.008;11.144;2023-02-12T14:10:39;14.20;77.30
45643;DHT22;31358;46.008;11.144;2023-02-12T14:13:12;14.30;79.30
45643;DHT22;31358;46.008;11.144;2023-02-12T14:15:55;14.20;78.10
45643;DHT22;31358;46.008;11.144;2023-02-12T14:18:32;14.30;76.80
45643;DHT22;31358;46.008;11.144;2023-02-12T14:23:41;14.20;76.00
45643;DHT22;31358;46.008;11.144;2023-02-12T14:33:45;14.30;76.80
45643;DHT22;31358;46.008;11.144;2023-02-12T14:41:44;14.50;77.20
45643;DHT22;31358;46.008;11.144;2023-02-12T14:49:25;14.30;76.40
45643;DHT22;31358;46.008;11.144;2023-02-12T14:54:45;14.30;76.10
45643;DHT22;31358;46.008;11.144;2023-02-12T14:57:36;14.30;75.20
45643;DHT22;31358;46.008;11.144;2023-02-12T15:05:53;14.40;74.60
45643;DHT22;31358;46.008;11.144;2023-02-12T15:08:43;14.40;74.80
45643;DHT22;31358;46.008;11.144;2023-02-12T15:14:03;14.20;72.60
45643;DHT22;31358;46.008;11.144;2023-02-12T15:16:34;14.20;72.50
45643;DHT22;31358;46.008;11.144;2023-02-12T15:22:00;13.80;72.00
45643;DHT22;31358;46.008;11.144;2023-02-12T15:24:26;13.80;72.10
45643;DHT22;31358;46.008;11.144;2023-02-12T15:26:55;13.60;72.50
45643;DHT22;31358;46.008;11.144;2023-02-12T15:29:30;13.60;71.80
45643;DHT22;31358;46.008;11.144;2023-02-12T15:32:01;13.80;71.20
45643;DHT22;31358;46.008;11.144;2023-02-12T15:34:31;13.80;72.50
45643;DHT22;31358;46.008;11.144;2023-02-12T15:37:01;13.70;71.30
45643;DHT22;31358;46.008;11.144;2023-02-12T15:39:40;13.70;70.60
45643;DHT22;31358;46.008;11.144;2023-02-12T15:42:30;13.60;71.10
45643;DHT22;31358;46.008;11.144;2023-02-12T15:47:42;13.40;73.70
45643;DHT22;31358;46.008;11.144;2023-02-12T15:50:15;13.20;74.90
45643;DHT22;31358;46.008;11.144;2023-02-12T15:52:43;13.20;75.60
45643;DHT22;31358;46.008;11.144;2023-02-12T15:55:19;13.00;75.60
45643;DHT22;31358;46.008;11.144;2023-02-12T15:57:48;12.80;75.30
45643;DHT22;31358;46.008;11.144;2023-02-12T16:00:41;12.60;76.00
45643;DHT22;31358;46.008;11.144;2023-02-12T16:05:49;12.10;76.70
45643;DHT22;31358;46.008;11.144;2023-02-12T16:08:18;12.10;76.60
45643;DHT22;31358;46.008;11.144;2023-02-12T16:10:46;12.00;76.60
45643;DHT22;31358;46.008;11.144;2023-02-12T16:13:33;11.90;76.90
45643;DHT22;31358;46.008;11.144;2023-02-12T16:18:38;11.50;77.80
45643;DHT22;31358;46.008;11.144;2023-02-12T16:21:18;11.40;78.20
45643;DHT22;31358;46.008;11.144;2023-02-12T16:23:49;11.20;78.20
45643;DHT22;31358;46.008;11.144;2023-02-12T16:26:20;11.20;78.10
45643;DHT22;31358;46.008;11.144;2023-02-12T16:28:48;11.10;78.20
45643;DHT22;31358;46.008;11.144;2023-02-12T16:31:15;11.10;78.40
45643;DHT22;31358;46.008;11.144;2023-02-12T16:33:52;10.90;78.80
45643;DHT22;31358;46.008;11.144;2023-02-12T16:41:20;10.80;77.40
45643;DHT22;31358;46.008;11.144;2023-02-12T16:46:26;10.70;77.60
45643;DHT22;31358;46.008;11.144;2023-02-12T16:48:55;10.50;77.90
45643;DHT22;31358;46.008;11.144;2023-02-12T16:51:30;10.30;79.10
45643;DHT22;31358;46.008;11.144;2023-02-12T16:54:00;10.20;79.00
45643;DHT22;31358;46.008;11.144;2023-02-12T16:56:28;10.20;78.90
45643;DHT22;31358;46.008;11.144;2023-02-12T16:58:57;10.10;79.30
45643;DHT22;31358;46.008;11.144;2023-02-12T17:01:29;10.00;79.20
45643;DHT22;31358;46.008;11.144;2023-02-12T17:03:56;10.10;79.00
45643;DHT22;31358;46.008;11.144;2023-02-12T17:06:32;10.10;78.60
45643;DHT22;31358;46.008;11.144;2023-02-12T17:08:58;9.90;79.00
45643;DHT22;31358;46.008;11.144;2023-02-12T17:11:25;9.80;79.20
45643;DHT22;31358;46.008;11.144;2023-02-12T17:13:53;9.90;79.30
45643;DHT22;31358;46.008;11.144;2023-02-12T17:16:19;9.90;79.10
45643;DHT22;31358;46.008;11.144;2023-02-12T17:18:45;9.80;79.40
45643;DHT22;31358;46.008;11.144;2023-02-12T17:21:23;9.60;79.70
45643;DHT22;31358;46.008;11.144;2023-02-12T17:23:49;9.60;79.70
45643;DHT22;31358;46.008;11.144;2023-02-12T17:26:18;9.50;79.90
45643;DHT22;31358;46.008;11.144;2023-02-12T17:28:43;9.40;80.00
45643;DHT22;31358;46.008;11.144;2023-02-12T17:31:09;9.30;80.40
45643;DHT22;31358;46.008;11.144;2023-02-12T17:33:35;9.30;80.60
45643;DHT22;31358;46.008;11.144;2023-02-12T17:36:01;9.20;80.60
45643;DHT22;31358;46.008;11.144;2023-02-12T17:38:27;9.10;80.70
45643;DHT22;31358;46.008;11.144;2023-02-12T17:40:52;9.10;80.90
45643;DHT22;31358;46.008;11.144;2023-02-12T17:43:18;9.10;80.80
45643;DHT22;31358;46.008;11.144;2023-02-12T17:45:44;9.10;80.90
45643;DHT22;31358;46.008;11.144;2023-02-12T17:48:15;9.00;81.10
45643;DHT22;31358;46.008;11.144;2023-02-12T17:50:41;8.90;80.90
45643;DHT22;31358;46.008;11.144;2023-02-12T17:53:08;9.00;81.00
45643;DHT22;31358;46.008;11.144;2023-02-12T17:55:37;8.90;81.20
45643;DHT22;31358;46.008;11.144;2023-02-12T17:58:03;8.80;81.60
45643;DHT22;31358;46.008;11.144;2023-02-12T18:00:29;8.80;81.60
45643;DHT22;31358;46.008;11.144;2023-02-12T18:02:54;8.80;81.60
45643;DHT22;31358;46.008;11.144;2023-02-12T18:05:20;8.80;81.50
45643;DHT22;31358;46.008;11.144;2023-02-12T18:07:46;8.80;81.50
45643;DHT22;31358;46.008;11.144;2023-02-12T18:10:12;8.70;81.70
45643;DHT22;31358;46.008;11.144;2023-02-12T18:12:37;8.80;81.50
45643;DHT22;31358;46.008;11.144;2023-02-12T18:15:04;8.70;81.50
45643;DHT22;31358;46.008;11.144;2023-02-12T18:17:30;8.70;81.30
45643;DHT22;31358;46.008;11.144;2023-02-12T18:19:56;8.60;81.30
45643;DHT22;31358;46.008;11.144;2023-02-12T18:22:22;8.40;80.70
45643;DHT22;31358;46.008;11.144;2023-02-12T18:24:48;8.50;81.80
45643;DHT22;31358;46.008;11.144;2023-02-12T18:27:15;8.50;81.90
45643;DHT22;31358;46.008;11.144;2023-02-12T18:29:41;8.30;81.90
45643;DHT22;31358;46.008;11.144;2023-02-12T18:32:06;8.40;82.20
45643;DHT22;31358;46.008;11.144;2023-02-12T18:34:33;8.30;82.40
45643;DHT22;31358;46.008;11.144;2023-02-12T18:36:59;8.30;83.10
45643;DHT22;31358;46.008;11.144;2023-02-12T18:39:25;8.30;82.80
45643;DHT22;31358;46.008;11.144;2023-02-12T18:41:50;8.50;82.40
45643;DHT22;31358;46.008;11.144;2023-02-12T18:44:16;8.10;81.70
45643;DHT22;31358;46.008;11.144;2023-02-12T18:46:41;8.30;81.60
45643;DHT22;31358;46.008;11.144;2023-02-12T18:49:10;8.20;80.00
45643;DHT22;31358;46.008;11.144;2023-02-12T18:51:36;8.00;80.50
45643;DHT22;31358;46.008;11.144;2023-02-12T18:54:07;8.10;82.10
45643;DHT22;31358;46.008;11.144;2023-02-12T18:56:37;8.10;81.90